sensor_id;sensor_type;location;lat;lon;timestamp;P1;durP1;ratioP1;P2;durP2;ratioP2
19798;SDS011;10059;59.850;10.454;2023-08-12T00:00:55;10.90;;;2.40;;
19798;SDS011;10059;59.850;10.454;2023-08-12T00:03:21;8.27;;;2.00;;
19798;SDS011;10059;59.850;10.454;2023-08-12T00:05:48;8.63;;;2.00;;
19798;SDS011;10059;59.850;10.454;2023-08-12T00:08:15;8.90;;;1.90;;
19798;SDS011;10059;59.850;10.454;2023-08-12T00:10:42;7.33;;;2.00;;
19798;SDS011;10059;59.850;10.454;2023-08-12T00:13:10;11.33;;;2.30;;
19798;SDS011;10059;59.850;10.454;2023-08-12T00:15:39;4.73;;;2.10;;
19798;SDS011;10059;59.850;10.454;2023-08-12T00:18:06;16.10;;;2.53;;
19798;SDS011;10059;59.850;10.454;2023-08-12T00:20:34;14.40;;;2.30;;
19798;SDS011;10059;59.850;10.454;2023-08-12T00:23:03;10.57;;;2.10;;
19798;SDS011;10059;59.850;10.454;2023-08-12T00:25:30;10.00;;;2.30;;
19798;SDS011;10059;59.850;10.454;2023-08-12T00:27:57;11.00;;;2.50;;
19798;SDS011;10059;59.850;10.454;2023-08-12T00:30:25;12.10;;;2.70;;
19798;SDS011;10059;59.850;10.454;2023-08-12T00:32:52;13.37;;;2.73;;
19798;SDS011;10059;59.850;10.454;2023-08-12T00:35:18;13.30;;;2.47;;
19798;SDS011;10059;59.850;10.454;2023-08-12T00:37:45;10.60;;;2.40;;
19798;SDS011;10059;59.850;10.454;2023-08-12T00:40:12;8.40;;;2.13;;
19798;SDS011;10059;59.850;10.454;2023-08-12T00:42:39;8.97;;;2.50;;
19798;SDS011;10059;59.850;10.454;2023-08-12T00:45:07;11.77;;;2.87;;
19798;SDS011;10059;59.850;10.454;2023-08-12T00:47:39;8.70;;;2.40;;
19798;SDS011;10059;59.850;10.454;2023-08-12T00:50:07;10.97;;;2.37;;
19798;SDS011;10059;59.850;10.454;2023-08-12T00:52:38;9.40;;;2.50;;
19798;SDS011;10059;59.850;10.454;2023-08-12T00:55:06;10.00;;;2.63;;
19798;SDS011;10059;59.850;10.454;2023-08-12T00:57:33;10.67;;;2.63;;
19798;SDS011;10059;59.850;10.454;2023-08-12T01:00:01;15.70;;;3.03;;
19798;SDS011;10059;59.850;10.454;2023-08-12T01:02:29;12.17;;;3.17;;
19798;SDS011;10059;59.850;10.454;2023-08-12T01:04:57;11.30;;;3.47;;
19798;SDS011;10059;59.850;10.454;2023-08-12T01:07:24;12.40;;;2.80;;
19798;SDS011;10059;59.850;10.454;2023-08-12T01:09:51;9.17;;;2.80;;
19798;SDS011;10059;59.850;10.454;2023-08-12T01:12:20;13.40;;;3.47;;
19798;SDS011;10059;59.850;10.454;2023-08-12T01:14:56;9.33;;;2.50;;
19798;SDS011;10059;59.850;10.454;2023-08-12T01:17:25;6.93;;;2.63;;
19798;SDS011;10059;59.850;10.454;2023-08-12T01:19:53;12.00;;;2.90;;
19798;SDS011;10059;59.850;10.454;2023-08-12T01:22:23;11.53;;;2.73;;
19798;SDS011;10059;59.850;10.454;2023-08-12T01:24:54;16.50;;;3.30;;
19798;SDS011;10059;59.850;10.454;2023-08-12T01:27:21;15.47;;;3.23;;
19798;SDS011;10059;59.850;10.454;2023-08-12T01:29:49;11.37;;;2.70;;
19798;SDS011;10059;59.850;10.454;2023-08-12T01:32:19;11.40;;;3.10;;
19798;SDS011;10059;59.850;10.454;2023-08-12T01:34:53;12.20;;;2.83;;
19798;SDS011;10059;59.850;10.454;2023-08-12T01:37:24;16.30;;;3.30;;
19798;SDS011;10059;59.850;10.454;2023-08-12T01:39:56;13.03;;;3.33;;
19798;SDS011;10059;59.850;10.454;2023-08-12T01:42:28;12.23;;;2.80;;
19798;SDS011;10059;59.850;10.454;2023-08-12T01:44:55;7.63;;;2.63;;
19798;SDS011;10059;59.850;10.454;2023-08-12T01:47:22;11.07;;;2.93;;
19798;SDS011;10059;59.850;10.454;2023-08-12T01:49:49;10.80;;;3.17;;
19798;SDS011;10059;59.850;10.454;2023-08-12T01:52:16;13.53;;;2.90;;
19798;SDS011;10059;59.850;10.454;2023-08-12T01:54:43;9.27;;;3.03;;
19798;SDS011;10059;59.850;10.454;2023-08-12T01:57:11;14.07;;;3.37;;
19798;SDS011;10059;59.850;10.454;2023-08-12T01:59:38;14.03;;;3.53;;
19798;SDS011;10059;59.850;10.454;2023-08-12T02:02:05;17.70;;;3.50;;
19798;SDS011;10059;59.850;10.454;2023-08-12T02:04:32;11.17;;;4.10;;
19798;SDS011;10059;59.850;10.454;2023-08-12T02:07:01;12.63;;;3.60;;
19798;SDS011;10059;59.850;10.454;2023-08-12T02:09:28;17.53;;;4.17;;
19798;SDS011;10059;59.850;10.454;2023-08-12T02:11:55;17.33;;;3.60;;
19798;SDS011;10059;59.850;10.454;2023-08-12T02:14:24;12.63;;;4.30;;
19798;SDS011;10059;59.850;10.454;2023-08-12T02:16:50;12.73;;;4.10;;
19798;SDS011;10059;59.850;10.454;2023-08-12T02:19:17;17.40;;;4.30;;
19798;SDS011;10059;59.850;10.454;2023-08-12T02:21:44;17.47;;;4.70;;
19798;SDS011;10059;59.850;10.454;2023-08-12T02:24:11;23.17;;;4.63;;
19798;SDS011;10059;59.850;10.454;2023-08-12T02:26:38;16.77;;;4.30;;
19798;SDS011;10059;59.850;10.454;2023-08-12T02:29:05;18.23;;;4.73;;
19798;SDS011;10059;59.850;10.454;2023-08-12T02:31:33;15.97;;;4.87;;
19798;SDS011;10059;59.850;10.454;2023-08-12T02:33:59;17.00;;;4.73;;
19798;SDS011;10059;59.850;10.454;2023-08-12T02:36:26;14.93;;;5.07;;
19798;SDS011;10059;59.850;10.454;2023-08-12T02:38:53;19.07;;;5.70;;
19798;SDS011;10059;59.850;10.454;2023-08-12T02:41:20;12.37;;;5.20;;
19798;SDS011;10059;59.850;10.454;2023-08-12T02:43:47;12.93;;;5.00;;
19798;SDS011;10059;59.850;10.454;2023-08-12T02:46:14;13.80;;;5.10;;
19798;SDS011;10059;59.850;10.454;2023-08-12T02:48:42;15.90;;;5.10;;
19798;SDS011;10059;59.850;10.454;2023-08-12T02:51:09;14.07;;;5.10;;
19798;SDS011;10059;59.850;10.454;2023-08-12T02:53:36;14.90;;;5.00;;
19798;SDS011;10059;59.850;10.454;2023-08-12T02:56:03;15.60;;;5.47;;
19798;SDS011;10059;59.850;10.454;2023-08-12T02:58:30;13.17;;;5.50;;
19798;SDS011;10059;59.850;10.454;2023-08-12T03:00:57;17.00;;;5.77;;
19798;SDS011;10059;59.850;10.454;2023-08-12T03:03:23;12.70;;;4.93;;
19798;SDS011;10059;59.850;10.454;2023-08-12T03:05:52;13.90;;;5.60;;
19798;SDS011;10059;59.850;10.454;2023-08-12T03:08:18;13.27;;;5.47;;
19798;SDS011;10059;59.850;10.454;2023-08-12T03:10:45;12.10;;;5.20;;
19798;SDS011;10059;59.850;10.454;2023-08-12T03:13:12;9.77;;;4.63;;
19798;SDS011;10059;59.850;10.454;2023-08-12T03:15:39;17.37;;;5.70;;
19798;SDS011;10059;59.850;10.454;2023-08-12T03:18:07;13.13;;;4.47;;
19798;SDS011;10059;59.850;10.454;2023-08-12T03:20:33;12.23;;;4.73;;
19798;SDS011;10059;59.850;10.454;2023-08-12T03:23:02;17.80;;;5.00;;
19798;SDS011;10059;59.850;10.454;2023-08-12T03:25:29;11.83;;;4.47;;
19798;SDS011;10059;59.850;10.454;2023-08-12T03:27:56;8.57;;;4.47;;
19798;SDS011;10059;59.850;10.454;2023-08-12T03:30:22;8.37;;;4.50;;
19798;SDS011;10059;59.850;10.454;2023-08-12T03:32:50;10.77;;;4.43;;
19798;SDS011;10059;59.850;10.454;2023-08-12T03:35:18;13.10;;;4.77;;
19798;SDS011;10059;59.850;10.454;2023-08-12T03:37:45;8.70;;;3.97;;
19798;SDS011;10059;59.850;10.454;2023-08-12T03:40:13;7.90;;;4.20;;
19798;SDS011;10059;59.850;10.454;2023-08-12T03:42:40;7.23;;;3.97;;
19798;SDS011;10059;59.850;10.454;2023-08-12T03:45:07;7.23;;;3.90;;
19798;SDS011;10059;59.850;10.454;2023-08-12T03:47:34;8.43;;;3.83;;
19798;SDS011;10059;59.850;10.454;2023-08-12T03:50:01;7.27;;;4.30;;
19798;SDS011;10059;59.850;10.454;2023-08-12T03:52:28;10.87;;;4.00;;
19798;SDS011;10059;59.850;10.454;2023-08-12T03:54:55;9.93;;;4.00;;
19798;SDS011;10059;59.850;10.454;2023-08-12T03:57:23;6.13;;;3.70;;
19798;SDS011;10059;59.850;10.454;2023-08-12T03:59:50;12.57;;;4.10;;
19798;SDS011;10059;59.850;10.454;2023-08-12T04:02:16;13.03;;;4.67;;
19798;SDS011;10059;59.850;10.454;2023-08-12T04:04:43;7.87;;;3.90;;
19798;SDS011;10059;59.850;10.454;2023-08-12T04:07:10;10.07;;;4.23;;
19798;SDS011;10059;59.850;10.454;2023-08-12T04:09:37;8.50;;;3.50;;
19798;SDS011;10059;59.850;10.454;2023-08-12T04:12:04;10.23;;;4.10;;
19798;SDS011;10059;59.850;10.454;2023-08-12T04:14:32;7.40;;;4.20;;
19798;SDS011;10059;59.850;10.454;2023-08-12T04:16:59;9.63;;;4.20;;
19798;SDS011;10059;59.850;10.454;2023-08-12T04:19:26;8.80;;;4.50;;
19798;SDS011;10059;59.850;10.454;2023-08-12T04:21:53;9.43;;;4.70;;
19798;SDS011;10059;59.850;10.454;2023-08-12T04:24:20;9.70;;;4.90;;
19798;SDS011;10059;59.850;10.454;2023-08-12T04:26:47;10.63;;;5.70;;
19798;SDS011;10059;59.850;10.454;2023-08-12T04:29:13;11.60;;;4.80;;
19798;SDS011;10059;59.850;10.454;2023-08-12T04:31:42;9.13;;;5.30;;
19798;SDS011;10059;59.850;10.454;2023-08-12T04:34:08;9.83;;;4.63;;
19798;SDS011;10059;59.850;10.454;2023-08-12T04:36:35;9.40;;;4.73;;
19798;SDS011;10059;59.850;10.454;2023-08-12T04:39:02;10.43;;;4.37;;
19798;SDS011;10059;59.850;10.454;2023-08-12T04:41:29;8.47;;;4.50;;
19798;SDS011;10059;59.850;10.454;2023-08-12T04:43:56;6.97;;;3.80;;
19798;SDS011;10059;59.850;10.454;2023-08-12T04:46:23;7.60;;;3.83;;
19798;SDS011;10059;59.850;10.454;2023-08-12T04:48:51;7.30;;;3.40;;
19798;SDS011;10059;59.850;10.454;2023-08-12T04:51:18;11.40;;;3.73;;
19798;SDS011;10059;59.850;10.454;2023-08-12T04:53:44;8.03;;;3.57;;
19798;SDS011;10059;59.850;10.454;2023-08-12T04:56:11;6.80;;;3.47;;
19798;SDS011;10059;59.850;10.454;2023-08-12T04:58:38;6.37;;;3.47;;
19798;SDS011;10059;59.850;10.454;2023-08-12T05:01:05;9.80;;;3.77;;
19798;SDS011;10059;59.850;10.454;2023-08-12T05:03:32;8.90;;;3.60;;
19798;SDS011;10059;59.850;10.454;2023-08-12T05:06:01;11.50;;;3.80;;
19798;SDS011;10059;59.850;10.454;2023-08-12T05:08:27;8.13;;;3.73;;
19798;SDS011;10059;59.850;10.454;2023-08-12T05:10:54;9.93;;;3.73;;
19798;SDS011;10059;59.850;10.454;2023-08-12T05:13:21;8.50;;;3.87;;
19798;SDS011;10059;59.850;10.454;2023-08-12T05:15:48;6.57;;;3.60;;
19798;SDS011;10059;59.850;10.454;2023-08-12T05:18:15;7.30;;;3.37;;
19798;SDS011;10059;59.850;10.454;2023-08-12T05:20:42;10.20;;;3.87;;
19798;SDS011;10059;59.850;10.454;2023-08-12T05:23:10;7.23;;;3.97;;
19798;SDS011;10059;59.850;10.454;2023-08-12T05:25:38;11.57;;;4.70;;
19798;SDS011;10059;59.850;10.454;2023-08-12T05:28:05;5.60;;;4.33;;
19798;SDS011;10059;59.850;10.454;2023-08-12T05:30:33;8.57;;;4.43;;
19798;SDS011;10059;59.850;10.454;2023-08-12T05:33:00;8.33;;;4.57;;
19798;SDS011;10059;59.850;10.454;2023-08-12T05:35:27;7.07;;;4.40;;
19798;SDS011;10059;59.850;10.454;2023-08-12T05:37:54;8.30;;;4.20;;
19798;SDS011;10059;59.850;10.454;2023-08-12T05:40:22;7.17;;;4.33;;
19798;SDS011;10059;59.850;10.454;2023-08-12T05:42:49;7.90;;;4.80;;
19798;SDS011;10059;59.850;10.454;2023-08-12T05:45:16;10.37;;;5.00;;
19798;SDS011;10059;59.850;10.454;2023-08-12T05:47:43;7.20;;;4.60;;
19798;SDS011;10059;59.850;10.454;2023-08-12T05:50:09;9.57;;;4.27;;
19798;SDS011;10059;59.850;10.454;2023-08-12T05:52:36;10.23;;;4.60;;
19798;SDS011;10059;59.850;10.454;2023-08-12T05:55:03;6.97;;;4.70;;
19798;SDS011;10059;59.850;10.454;2023-08-12T05:57:32;6.37;;;4.43;;
19798;SDS011;10059;59.850;10.454;2023-08-12T05:59:59;9.47;;;4.57;;
19798;SDS011;10059;59.850;10.454;2023-08-12T06:02:26;8.40;;;4.40;;
19798;SDS011;10059;59.850;10.454;2023-08-12T06:04:52;7.80;;;4.77;;
19798;SDS011;10059;59.850;10.454;2023-08-12T06:07:19;9.10;;;4.30;;
19798;SDS011;10059;59.850;10.454;2023-08-12T06:09:48;7.90;;;4.53;;
19798;SDS011;10059;59.850;10.454;2023-08-12T06:12:15;6.73;;;3.90;;
19798;SDS011;10059;59.850;10.454;2023-08-12T06:14:43;9.33;;;3.70;;
19798;SDS011;10059;59.850;10.454;2023-08-12T06:17:10;6.80;;;3.60;;
19798;SDS011;10059;59.850;10.454;2023-08-12T06:19:37;6.43;;;3.80;;
19798;SDS011;10059;59.850;10.454;2023-08-12T06:22:03;5.87;;;3.20;;
19798;SDS011;10059;59.850;10.454;2023-08-12T06:24:30;8.00;;;3.43;;
19798;SDS011;10059;59.850;10.454;2023-08-12T06:26:57;6.73;;;3.20;;
19798;SDS011;10059;59.850;10.454;2023-08-12T06:29:24;7.27;;;3.43;;
19798;SDS011;10059;59.850;10.454;2023-08-12T06:31:53;5.20;;;3.47;;
19798;SDS011;10059;59.850;10.454;2023-08-12T06:34:20;7.37;;;3.40;;
19798;SDS011;10059;59.850;10.454;2023-08-12T06:36:47;9.43;;;3.60;;
19798;SDS011;10059;59.850;10.454;2023-08-12T06:39:13;7.17;;;3.33;;
19798;SDS011;10059;59.850;10.454;2023-08-12T06:41:40;8.47;;;3.80;;
19798;SDS011;10059;59.850;10.454;2023-08-12T06:44:07;11.07;;;4.23;;
19798;SDS011;10059;59.850;10.454;2023-08-12T06:46:34;11.63;;;4.43;;
19798;SDS011;10059;59.850;10.454;2023-08-12T06:49:02;13.80;;;4.53;;
19798;SDS011;10059;59.850;10.454;2023-08-12T06:51:29;11.77;;;5.13;;
19798;SDS011;10059;59.850;10.454;2023-08-12T06:53:56;13.57;;;5.10;;
19798;SDS011;10059;59.850;10.454;2023-08-12T06:56:22;12.97;;;5.27;;
19798;SDS011;10059;59.850;10.454;2023-08-12T06:58:49;12.30;;;4.90;;
19798;SDS011;10059;59.850;10.454;2023-08-12T07:01:16;11.43;;;5.33;;
19798;SDS011;10059;59.850;10.454;2023-08-12T07:03:43;13.70;;;5.63;;
19798;SDS011;10059;59.850;10.454;2023-08-12T07:06:11;12.63;;;5.37;;
19798;SDS011;10059;59.850;10.454;2023-08-12T07:08:38;11.53;;;5.43;;
19798;SDS011;10059;59.850;10.454;2023-08-12T07:11:05;13.53;;;5.70;;
19798;SDS011;10059;59.850;10.454;2023-08-12T07:13:31;22.90;;;5.83;;
19798;SDS011;10059;59.850;10.454;2023-08-12T07:15:58;13.43;;;5.43;;
19798;SDS011;10059;59.850;10.454;2023-08-12T07:18:25;12.13;;;5.33;;
19798;SDS011;10059;59.850;10.454;2023-08-12T07:20:53;12.17;;;5.00;;
19798;SDS011;10059;59.850;10.454;2023-08-12T07:23:22;13.90;;;5.60;;
19798;SDS011;10059;59.850;10.454;2023-08-12T07:25:48;13.70;;;5.73;;
19798;SDS011;10059;59.850;10.454;2023-08-12T07:28:15;13.07;;;5.50;;
19798;SDS011;10059;59.850;10.454;2023-08-12T07:30:42;12.87;;;5.30;;
19798;SDS011;10059;59.850;10.454;2023-08-12T07:33:09;14.57;;;5.77;;
19798;SDS011;10059;59.850;10.454;2023-08-12T07:35:36;12.10;;;5.80;;
19798;SDS011;10059;59.850;10.454;2023-08-12T07:38:03;11.10;;;5.57;;
19798;SDS011;10059;59.850;10.454;2023-08-12T07:40:31;11.70;;;5.63;;
19798;SDS011;10059;59.850;10.454;2023-08-12T07:42:58;9.73;;;5.00;;
19798;SDS011;10059;59.850;10.454;2023-08-12T07:45:25;15.17;;;5.83;;
19798;SDS011;10059;59.850;10.454;2023-08-12T07:47:52;11.60;;;5.37;;
19798;SDS011;10059;59.850;10.454;2023-08-12T07:50:19;11.67;;;5.40;;
19798;SDS011;10059;59.850;10.454;2023-08-12T07:52:46;10.63;;;5.43;;
19798;SDS011;10059;59.850;10.454;2023-08-12T07:55:12;11.77;;;5.83;;
19798;SDS011;10059;59.850;10.454;2023-08-12T07:57:41;12.17;;;6.13;;
19798;SDS011;10059;59.850;10.454;2023-08-12T08:00:08;12.87;;;6.30;;
19798;SDS011;10059;59.850;10.454;2023-08-12T08:02:37;10.83;;;5.93;;
19798;SDS011;10059;59.850;10.454;2023-08-12T08:05:04;13.93;;;6.97;;
19798;SDS011;10059;59.850;10.454;2023-08-12T08:07:32;14.60;;;7.33;;
19798;SDS011;10059;59.850;10.454;2023-08-12T08:09:59;13.07;;;6.93;;
19798;SDS011;10059;59.850;10.454;2023-08-12T08:12:25;14.20;;;7.03;;
19798;SDS011;10059;59.850;10.454;2023-08-12T08:14:54;13.00;;;7.23;;
19798;SDS011;10059;59.850;10.454;2023-08-12T08:17:20;13.37;;;6.73;;
19798;SDS011;10059;59.850;10.454;2023-08-12T08:19:47;16.97;;;7.47;;
19798;SDS011;10059;59.850;10.454;2023-08-12T08:22:14;14.00;;;7.23;;
19798;SDS011;10059;59.850;10.454;2023-08-12T08:24:41;14.13;;;7.20;;
19798;SDS011;10059;59.850;10.454;2023-08-12T08:27:08;13.67;;;7.73;;
19798;SDS011;10059;59.850;10.454;2023-08-12T08:29:34;14.63;;;7.60;;
19798;SDS011;10059;59.850;10.454;2023-08-12T08:32:03;15.27;;;7.60;;
19798;SDS011;10059;59.850;10.454;2023-08-12T08:34:30;14.60;;;7.60;;
19798;SDS011;10059;59.850;10.454;2023-08-12T08:36:57;14.03;;;7.53;;
19798;SDS011;10059;59.850;10.454;2023-08-12T08:39:23;13.90;;;7.13;;
19798;SDS011;10059;59.850;10.454;2023-08-12T08:41:51;13.93;;;7.57;;
19798;SDS011;10059;59.850;10.454;2023-08-12T08:44:21;12.73;;;7.60;;
19798;SDS011;10059;59.850;10.454;2023-08-12T08:46:49;16.13;;;8.03;;
19798;SDS011;10059;59.850;10.454;2023-08-12T08:49:20;14.47;;;7.30;;
19798;SDS011;10059;59.850;10.454;2023-08-12T08:51:49;10.47;;;6.83;;
19798;SDS011;10059;59.850;10.454;2023-08-12T08:54:16;12.50;;;6.60;;
19798;SDS011;10059;59.850;10.454;2023-08-12T08:56:44;10.23;;;6.20;;
19798;SDS011;10059;59.850;10.454;2023-08-12T08:59:12;13.37;;;6.60;;
19798;SDS011;10059;59.850;10.454;2023-08-12T09:01:39;9.70;;;6.13;;
19798;SDS011;10059;59.850;10.454;2023-08-12T09:04:07;10.00;;;6.30;;
19798;SDS011;10059;59.850;10.454;2023-08-12T09:06:37;8.90;;;5.73;;
19798;SDS011;10059;59.850;10.454;2023-08-12T09:09:06;9.00;;;5.80;;
19798;SDS011;10059;59.850;10.454;2023-08-12T09:11:37;11.80;;;5.97;;
19798;SDS011;10059;59.850;10.454;2023-08-12T09:14:05;7.70;;;5.60;;
19798;SDS011;10059;59.850;10.454;2023-08-12T09:16:33;8.07;;;5.50;;
19798;SDS011;10059;59.850;10.454;2023-08-12T09:19:00;10.87;;;5.90;;
19798;SDS011;10059;59.850;10.454;2023-08-12T09:21:27;8.17;;;5.33;;
19798;SDS011;10059;59.850;10.454;2023-08-12T09:23:55;6.50;;;4.90;;
19798;SDS011;10059;59.850;10.454;2023-08-12T09:26:23;8.43;;;5.50;;
19798;SDS011;10059;59.850;10.454;2023-08-12T09:28:49;7.60;;;4.67;;
19798;SDS011;10059;59.850;10.454;2023-08-12T09:31:21;8.27;;;4.97;;
19798;SDS011;10059;59.850;10.454;2023-08-12T09:33:50;6.53;;;4.80;;
19798;SDS011;10059;59.850;10.454;2023-08-12T09:36:17;7.97;;;5.33;;
19798;SDS011;10059;59.850;10.454;2023-08-12T09:38:44;6.20;;;5.20;;
19798;SDS011;10059;59.850;10.454;2023-08-12T09:41:12;8.53;;;5.87;;
19798;SDS011;10059;59.850;10.454;2023-08-12T09:43:40;9.00;;;6.00;;
19798;SDS011;10059;59.850;10.454;2023-08-12T09:46:10;10.97;;;6.20;;
19798;SDS011;10059;59.850;10.454;2023-08-12T09:48:38;8.10;;;5.80;;
19798;SDS011;10059;59.850;10.454;2023-08-12T09:51:05;8.33;;;5.20;;
19798;SDS011;10059;59.850;10.454;2023-08-12T09:53:32;9.70;;;5.40;;
19798;SDS011;10059;59.850;10.454;2023-08-12T09:56:00;8.27;;;5.83;;
19798;SDS011;10059;59.850;10.454;2023-08-12T09:58:33;7.27;;;5.20;;
19798;SDS011;10059;59.850;10.454;2023-08-12T10:01:02;8.47;;;4.80;;
19798;SDS011;10059;59.850;10.454;2023-08-12T10:03:29;7.40;;;4.67;;
19798;SDS011;10059;59.850;10.454;2023-08-12T10:05:56;7.07;;;4.90;;
19798;SDS011;10059;59.850;10.454;2023-08-12T10:08:25;8.00;;;5.30;;
19798;SDS011;10059;59.850;10.454;2023-08-12T10:10:53;10.57;;;5.70;;
19798;SDS011;10059;59.850;10.454;2023-08-12T10:13:20;6.87;;;4.93;;
19798;SDS011;10059;59.850;10.454;2023-08-12T10:15:49;9.27;;;5.70;;
19798;SDS011;10059;59.850;10.454;2023-08-12T10:18:16;7.80;;;5.77;;
19798;SDS011;10059;59.850;10.454;2023-08-12T10:20:44;8.23;;;6.00;;
19798;SDS011;10059;59.850;10.454;2023-08-12T10:23:13;9.77;;;6.00;;
19798;SDS011;10059;59.850;10.454;2023-08-12T10:25:43;9.50;;;5.90;;
19798;SDS011;10059;59.850;10.454;2023-08-12T10:28:10;7.70;;;5.70;;
19798;SDS011;10059;59.850;10.454;2023-08-12T10:30:37;10.50;;;6.57;;
19798;SDS011;10059;59.850;10.454;2023-08-12T10:33:08;9.43;;;6.17;;
19798;SDS011;10059;59.850;10.454;2023-08-12T10:35:42;9.10;;;6.33;;
19798;SDS011;10059;59.850;10.454;2023-08-12T10:38:10;10.00;;;6.60;;
19798;SDS011;10059;59.850;10.454;2023-08-12T10:40:38;7.73;;;6.53;;
19798;SDS011;10059;59.850;10.454;2023-08-12T10:43:05;11.20;;;6.80;;
19798;SDS011;10059;59.850;10.454;2023-08-12T10:45:41;8.83;;;6.67;;
19798;SDS011;10059;59.850;10.454;2023-08-12T10:48:20;8.70;;;6.30;;
19798;SDS011;10059;59.850;10.454;2023-08-12T10:50:48;8.37;;;6.30;;
19798;SDS011;10059;59.850;10.454;2023-08-12T10:53:25;10.60;;;7.00;;
19798;SDS011;10059;59.850;10.454;2023-08-12T10:55:56;8.07;;;6.07;;
19798;SDS011;10059;59.850;10.454;2023-08-12T10:58:25;7.23;;;5.30;;
19798;SDS011;10059;59.850;10.454;2023-08-12T11:00:53;7.97;;;6.00;;
19798;SDS011;10059;59.850;10.454;2023-08-12T11:03:22;8.20;;;5.00;;
19798;SDS011;10059;59.850;10.454;2023-08-12T11:05:49;8.50;;;5.27;;
19798;SDS011;10059;59.850;10.454;2023-08-12T11:08:23;8.67;;;5.20;;
19798;SDS011;10059;59.850;10.454;2023-08-12T11:10:51;6.77;;;4.33;;
19798;SDS011;10059;59.850;10.454;2023-08-12T11:13:20;4.70;;;4.20;;
19798;SDS011;10059;59.850;10.454;2023-08-12T11:15:47;5.60;;;4.30;;
19798;SDS011;10059;59.850;10.454;2023-08-12T11:18:15;6.10;;;3.97;;
19798;SDS011;10059;59.850;10.454;2023-08-12T11:20:44;5.90;;;4.40;;
19798;SDS011;10059;59.850;10.454;2023-08-12T11:23:12;7.47;;;5.30;;
19798;SDS011;10059;59.850;10.454;2023-08-12T11:25:39;7.03;;;4.70;;
19798;SDS011;10059;59.850;10.454;2023-08-12T11:28:09;8.67;;;5.70;;
19798;SDS011;10059;59.850;10.454;2023-08-12T11:30:36;7.93;;;5.10;;
19798;SDS011;10059;59.850;10.454;2023-08-12T11:33:03;7.73;;;5.10;;
19798;SDS011;10059;59.850;10.454;2023-08-12T11:35:30;8.30;;;4.97;;
19798;SDS011;10059;59.850;10.454;2023-08-12T11:37:58;9.23;;;4.90;;
19798;SDS011;10059;59.850;10.454;2023-08-12T11:40:26;6.70;;;4.37;;
19798;SDS011;10059;59.850;10.454;2023-08-12T11:42:53;6.17;;;3.70;;
19798;SDS011;10059;59.850;10.454;2023-08-12T11:45:21;6.43;;;3.70;;
19798;SDS011;10059;59.850;10.454;2023-08-12T11:47:48;9.30;;;3.60;;
19798;SDS011;10059;59.850;10.454;2023-08-12T11:50:19;7.60;;;3.80;;
19798;SDS011;10059;59.850;10.454;2023-08-12T11:52:46;5.83;;;3.50;;
19798;SDS011;10059;59.850;10.454;2023-08-12T11:55:15;8.00;;;3.70;;
19798;SDS011;10059;59.850;10.454;2023-08-12T11:57:43;6.57;;;3.73;;
19798;SDS011;10059;59.850;10.454;2023-08-12T12:00:11;6.50;;;3.70;;
19798;SDS011;10059;59.850;10.454;2023-08-12T12:02:39;8.20;;;3.90;;
19798;SDS011;10059;59.850;10.454;2023-08-12T12:05:11;6.20;;;3.80;;
19798;SDS011;10059;59.850;10.454;2023-08-12T12:07:39;5.60;;;3.63;;
19798;SDS011;10059;59.850;10.454;2023-08-12T12:10:06;7.50;;;4.30;;
19798;SDS011;10059;59.850;10.454;2023-08-12T12:12:35;6.83;;;4.03;;
19798;SDS011;10059;59.850;10.454;2023-08-12T12:15:03;9.60;;;4.00;;
19798;SDS011;10059;59.850;10.454;2023-08-12T12:17:31;8.27;;;3.73;;
19798;SDS011;10059;59.850;10.454;2023-08-12T12:19:58;8.53;;;3.47;;
19798;SDS011;10059;59.850;10.454;2023-08-12T12:22:26;5.73;;;3.83;;
19798;SDS011;10059;59.850;10.454;2023-08-12T12:24:57;5.53;;;3.87;;
19798;SDS011;10059;59.850;10.454;2023-08-12T12:27:25;7.93;;;3.50;;
19798;SDS011;10059;59.850;10.454;2023-08-12T12:29:53;8.13;;;3.93;;
19798;SDS011;10059;59.850;10.454;2023-08-12T12:32:20;9.40;;;3.93;;
19798;SDS011;10059;59.850;10.454;2023-08-12T12:34:48;7.67;;;3.60;;
19798;SDS011;10059;59.850;10.454;2023-08-12T12:37:15;7.50;;;3.70;;
19798;SDS011;10059;59.850;10.454;2023-08-12T12:39:41;7.10;;;3.73;;
19798;SDS011;10059;59.850;10.454;2023-08-12T12:42:09;6.83;;;4.00;;
19798;SDS011;10059;59.850;10.454;2023-08-12T12:44:36;5.73;;;3.60;;
19798;SDS011;10059;59.850;10.454;2023-08-12T12:47:05;6.03;;;3.50;;
19798;SDS011;10059;59.850;10.454;2023-08-12T12:49:32;7.07;;;3.87;;
19798;SDS011;10059;59.850;10.454;2023-08-12T12:51:59;9.57;;;3.93;;
19798;SDS011;10059;59.850;10.454;2023-08-12T12:54:25;5.87;;;3.87;;
19798;SDS011;10059;59.850;10.454;2023-08-12T12:56:52;10.30;;;4.03;;
19798;SDS011;10059;59.850;10.454;2023-08-12T12:59:19;8.47;;;3.90;;
19798;SDS011;10059;59.850;10.454;2023-08-12T13:01:46;10.40;;;3.70;;
19798;SDS011;10059;59.850;10.454;2023-08-12T13:04:14;12.97;;;4.10;;
19798;SDS011;10059;59.850;10.454;2023-08-12T13:06:41;8.67;;;3.83;;
19798;SDS011;10059;59.850;10.454;2023-08-12T13:09:08;7.23;;;3.57;;
19798;SDS011;10059;59.850;10.454;2023-08-12T13:11:35;7.50;;;3.93;;
19798;SDS011;10059;59.850;10.454;2023-08-12T13:14:01;9.27;;;3.80;;
19798;SDS011;10059;59.850;10.454;2023-08-12T13:16:29;6.90;;;3.70;;
19798;SDS011;10059;59.850;10.454;2023-08-12T13:18:56;6.57;;;3.70;;
19798;SDS011;10059;59.850;10.454;2023-08-12T13:21:26;7.00;;;3.73;;
19798;SDS011;10059;59.850;10.454;2023-08-12T13:23:53;8.20;;;4.27;;
19798;SDS011;10059;59.850;10.454;2023-08-12T13:26:21;7.67;;;3.63;;
19798;SDS011;10059;59.850;10.454;2023-08-12T13:28:48;9.43;;;3.90;;
19798;SDS011;10059;59.850;10.454;2023-08-12T13:31:15;6.30;;;3.43;;
19798;SDS011;10059;59.850;10.454;2023-08-12T13:33:41;7.17;;;3.53;;
19798;SDS011;10059;59.850;10.454;2023-08-12T13:36:08;8.63;;;3.70;;
19798;SDS011;10059;59.850;10.454;2023-08-12T13:38:36;9.37;;;3.90;;
19798;SDS011;10059;59.850;10.454;2023-08-12T13:41:03;10.70;;;4.10;;
19798;SDS011;10059;59.850;10.454;2023-08-12T13:43:30;10.63;;;5.10;;
19798;SDS011;10059;59.850;10.454;2023-08-12T13:45:57;11.73;;;4.53;;
19798;SDS011;10059;59.850;10.454;2023-08-12T13:48:24;15.33;;;4.00;;
19798;SDS011;10059;59.850;10.454;2023-08-12T13:50:51;10.67;;;4.20;;
19798;SDS011;10059;59.850;10.454;2023-08-12T13:53:18;12.53;;;4.40;;
19798;SDS011;10059;59.850;10.454;2023-08-12T13:55:46;13.70;;;4.23;;
19798;SDS011;10059;59.850;10.454;2023-08-12T13:58:13;10.60;;;3.90;;
19798;SDS011;10059;59.850;10.454;2023-08-12T14:00:39;9.80;;;3.80;;
19798;SDS011;10059;59.850;10.454;2023-08-12T14:03:06;8.63;;;4.00;;
19798;SDS011;10059;59.850;10.454;2023-08-12T14:05:33;10.07;;;3.80;;
19798;SDS011;10059;59.850;10.454;2023-08-12T14:08:00;13.80;;;4.30;;
19798;SDS011;10059;59.850;10.454;2023-08-12T14:10:27;10.57;;;3.70;;
19798;SDS011;10059;59.850;10.454;2023-08-12T14:12:55;9.00;;;3.80;;
19798;SDS011;10059;59.850;10.454;2023-08-12T14:15:22;8.17;;;3.57;;
19798;SDS011;10059;59.850;10.454;2023-08-12T14:17:49;15.80;;;4.97;;
19798;SDS011;10059;59.850;10.454;2023-08-12T14:20:16;12.50;;;3.90;;
19798;SDS011;10059;59.850;10.454;2023-08-12T14:22:43;9.50;;;3.70;;
19798;SDS011;10059;59.850;10.454;2023-08-12T14:25:10;8.57;;;3.40;;
19798;SDS011;10059;59.850;10.454;2023-08-12T14:27:37;7.67;;;3.37;;
19798;SDS011;10059;59.850;10.454;2023-08-12T14:30:06;10.83;;;3.67;;